Time;durP1;ratioP1;P1;durP2;ratioP2;P2;SDS_P1;SDS_P2;PMS_P1;PMS_P2;Temp;Humidity;BMP_temperature;BMP_pressure;BME280_temperature;BME280_humidity;BME280_pressure;Samples;Min_cycle;Max_cycle;Signal;HPM_P1;HPM_P2
2024/01/17 00:02:12;;;;;;;;;;;20.90;32.80;;;;;;4996574;28;20031;-59
2024/01/17 00:04:39;;;;;;;;;;;20.90;32.80;;;;;;5013917;28;20353;-60
2024/01/17 00:07:06;;;;;;;;;;;20.90;32.80;;;;;;5013247;28;20012;-59
2024/01/17 00:09:33;;;;;;;;;;;20.90;32.80;;;;;;5013854;28;19925;-59
2024/01/17 00:12:04;;;;;;;;;;;20.90;32.70;;;;;;5013703;28;19972;-59
2024/01/17 00:14:31;;;;;;;;;;;20.90;32.70;;;;;;5013364;28;20409;-59
2024/01/17 00:16:59;;;;;;;;;;;20.90;32.70;;;;;;5013443;28;20023;-59
2024/01/17 00:19:26;;;;;;;;;;;20.90;32.80;;;;;;5013765;28;19926;-59
2024/01/17 00:21:53;;;;;;;;;;;20.80;32.70;;;;;;5001977;28;19926;-59
2024/01/17 00:24:20;;;;;;;;;;;20.90;32.70;;;;;;4994182;28;20344;-59
2024/01/17 00:26:46;;;;;;;;;;;20.80;32.70;;;;;;4993523;28;19929;-59
2024/01/17 00:29:15;;;;;;;;;;;20.80;32.70;;;;;;4994069;28;20342;-59
2024/01/17 00:31:43;;;;;;;;;;;20.80;32.70;;;;;;4993919;28;19948;-59
2024/01/17 00:34:10;;;;;;;;;;;20.80;32.70;;;;;;4976518;28;19932;-60
2024/01/17 00:36:37;;;;;;;;;;;20.80;32.70;;;;;;4993832;28;19932;-59
2024/01/17 00:39:04;;;;;;;;;;;20.80;32.70;;;;;;4993765;28;19971;-57
2024/01/17 00:41:31;;;;;;;;;;;20.80;32.60;;;;;;4993852;28;19926;-60
2024/01/17 00:43:59;;;;;;;;;;;20.80;32.60;;;;;;4993610;28;19930;-59
2024/01/17 00:46:26;;;;;;;;;;;20.80;32.60;;;;;;4993823;28;20393;-59
2024/01/17 00:48:53;;;;;;;;;;;20.80;32.60;;;;;;4993807;28;20320;-59
2024/01/17 00:51:23;;;;;;;;;;;20.80;32.60;;;;;;4993876;28;19926;-60
2024/01/17 00:53:51;;;;;;;;;;;20.80;32.60;;;;;;4993747;28;19926;-59
2024/01/17 00:56:18;;;;;;;;;;;20.80;32.60;;;;;;4976638;28;19926;-59
2024/01/17 00:58:45;;;;;;;;;;;20.80;32.50;;;;;;4993463;28;20390;-60
2024/01/17 01:01:11;;;;;;;;;;;20.80;32.60;;;;;;4993598;28;19976;-59
2024/01/17 01:03:38;;;;;;;;;;;20.80;32.60;;;;;;4993781;28;19930;-60
2024/01/17 01:06:05;;;;;;;;;;;20.80;32.60;;;;;;4993209;28;20388;-59
2024/01/17 01:08:32;;;;;;;;;;;20.80;32.60;;;;;;4993394;28;20024;-59
2024/01/17 01:10:59;;;;;;;;;;;20.80;32.60;;;;;;4993535;28;19992;-58
2024/01/17 01:13:26;;;;;;;;;;;20.80;32.50;;;;;;4993389;28;19933;-60
2024/01/17 01:15:53;;;;;;;;;;;20.80;32.50;;;;;;4993512;28;19926;-59
2024/01/17 01:18:20;;;;;;;;;;;20.80;32.50;;;;;;4976346;28;20016;-59
2024/01/17 01:20:47;;;;;;;;;;;20.80;32.50;;;;;;4995571;28;20447;-59
2024/01/17 01:23:14;;;;;;;;;;;20.80;32.50;;;;;;5013257;28;19932;-59
2024/01/17 01:25:41;;;;;;;;;;;20.80;32.50;;;;;;5014075;28;19925;-60
2024/01/17 01:28:08;;;;;;;;;;;20.80;32.50;;;;;;5016677;28;19930;-59
2024/01/17 01:30:35;;;;;;;;;;;20.80;32.50;;;;;;5016551;28;19961;-60
2024/01/17 01:33:02;;;;;;;;;;;20.70;32.50;;;;;;5016010;28;19925;-59
2024/01/17 01:35:29;;;;;;;;;;;20.70;32.50;;;;;;5016282;28;19925;-59
2024/01/17 01:37:56;;;;;;;;;;;20.70;32.40;;;;;;5016368;28;19929;-59
2024/01/17 01:40:23;;;;;;;;;;;20.70;32.40;;;;;;4998714;28;19932;-59
2024/01/17 01:42:50;;;;;;;;;;;20.70;32.40;;;;;;5016029;28;20008;-59
2024/01/17 01:45:17;;;;;;;;;;;20.70;32.40;;;;;;5016328;28;19929;-59
2024/01/17 01:47:44;;;;;;;;;;;20.70;32.40;;;;;;5015481;28;19980;-60
2024/01/17 01:50:11;;;;;;;;;;;20.70;32.40;;;;;;5016083;28;19933;-59
2024/01/17 01:52:40;;;;;;;;;;;20.70;32.40;;;;;;5015725;28;19925;-59
2024/01/17 01:55:07;;;;;;;;;;;20.70;32.40;;;;;;5016215;28;19925;-59
2024/01/17 01:57:35;;;;;;;;;;;20.70;32.40;;;;;;5015868;28;19930;-59
2024/01/17 02:00:04;;;;;;;;;;;20.70;32.40;;;;;;5015863;28;20346;-59
2024/01/17 02:02:32;;;;;;;;;;;20.70;32.40;;;;;;5015658;28;20013;-59
2024/01/17 02:05:00;;;;;;;;;;;20.70;32.40;;;;;;5016054;28;19976;-59
2024/01/17 02:07:27;;;;;;;;;;;20.70;32.40;;;;;;5015509;28;19925;-59
2024/01/17 02:09:54;;;;;;;;;;;20.70;32.40;;;;;;5015553;28;19926;-60
2024/01/17 02:12:21;;;;;;;;;;;20.70;32.40;;;;;;5015506;28;19925;-59
2024/01/17 02:14:48;;;;;;;;;;;20.70;32.40;;;;;;5015423;28;19944;-59
2024/01/17 02:17:15;;;;;;;;;;;20.70;32.40;;;;;;5015390;28;19965;-59
2024/01/17 02:19:42;;;;;;;;;;;20.70;32.30;;;;;;5015956;28;19925;-59
2024/01/17 02:22:09;;;;;;;;;;;20.70;32.30;;;;;;5001639;28;19934;-60
2024/01/17 02:24:36;;;;;;;;;;;20.70;32.20;;;;;;4996077;28;19933;-59
2024/01/17 02:27:03;;;;;;;;;;;20.70;32.90;;;;;;4996014;28;19926;-59
2024/01/17 02:29:31;;;;;;;;;;;20.70;32.30;;;;;;4995588;28;20013;-59
2024/01/17 02:31:58;;;;;;;;;;;20.70;32.20;;;;;;4995533;28;19930;-59
2024/01/17 02:34:25;;;;;;;;;;;20.70;32.20;;;;;;4995598;28;19926;-59
2024/01/17 02:36:52;;;;;;;;;;;20.70;32.20;;;;;;4994202;28;20004;-59
2024/01/17 02:39:19;;;;;;;;;;;20.70;32.30;;;;;;4995281;28;20029;-59
2024/01/17 02:41:46;;;;;;;;;;;20.70;32.30;;;;;;4995131;28;19932;-59
2024/01/17 02:44:13;;;;;;;;;;;20.70;32.20;;;;;;4995063;28;20029;-59
2024/01/17 02:46:40;;;;;;;;;;;20.60;32.20;;;;;;4995172;28;20035;-59
2024/01/17 02:49:08;;;;;;;;;;;20.70;32.20;;;;;;4995387;28;19930;-59
2024/01/17 02:51:35;;;;;;;;;;;20.60;32.20;;;;;;4994956;28;19989;-59
2024/01/17 02:54:02;;;;;;;;;;;20.60;32.20;;;;;;4995414;28;19972;-59
2024/01/17 02:56:29;;;;;;;;;;;20.60;32.20;;;;;;4995067;28;19926;-59
2024/01/17 02:58:56;;;;;;;;;;;20.60;32.20;;;;;;4995371;28;19932;-59
2024/01/17 03:01:23;;;;;;;;;;;20.60;32.20;;;;;;4995374;28;19930;-59
2024/01/17 03:03:49;;;;;;;;;;;20.60;32.20;;;;;;4994900;28;19930;-58
2024/01/17 03:06:17;;;;;;;;;;;20.60;32.20;;;;;;4995134;28;19972;-59
2024/01/17 03:08:45;;;;;;;;;;;20.60;32.20;;;;;;4995254;28;19930;-59
2024/01/17 03:11:12;;;;;;;;;;;20.60;32.10;;;;;;4994695;28;19932;-59
2024/01/17 03:13:38;;;;;;;;;;;20.60;32.10;;;;;;4994980;28;20294;-59
2024/01/17 03:16:05;;;;;;;;;;;20.60;32.10;;;;;;4995035;28;20314;-59
2024/01/17 03:18:32;;;;;;;;;;;20.60;32.10;;;;;;4977449;28;19972;-59
2024/01/17 03:21:03;;;;;;;;;;;20.70;32.20;;;;;;4998749;28;19979;-59
2024/01/17 03:23:30;;;;;;;;;;;20.60;32.10;;;;;;5014665;28;19933;-59
2024/01/17 03:25:57;;;;;;;;;;;20.70;32.20;;;;;;5014424;28;19930;-59
2024/01/17 03:28:25;;;;;;;;;;;20.70;32.10;;;;;;5014052;28;20470;-59
2024/01/17 03:30:52;;;;;;;;;;;20.70;32.10;;;;;;5014376;28;19996;-59
2024/01/17 03:33:19;;;;;;;;;;;20.70;32.10;;;;;;5014021;28;19973;-59
2024/01/17 03:35:46;;;;;;;;;;;20.70;32.00;;;;;;5013906;28;20283;-59
2024/01/17 03:38:13;;;;;;;;;;;20.70;32.00;;;;;;5014326;28;19971;-59
2024/01/17 03:40:40;;;;;;;;;;;20.70;32.00;;;;;;5013857;28;19936;-59
2024/01/17 03:43:07;;;;;;;;;;;20.70;32.00;;;;;;5013988;28;20028;-60
2024/01/17 03:45:34;;;;;;;;;;;20.70;32.00;;;;;;5014247;28;19925;-59
2024/01/17 03:48:01;;;;;;;;;;;20.70;32.10;;;;;;5013623;28;20365;-60
2024/01/17 03:50:28;;;;;;;;;;;20.70;32.10;;;;;;5014042;28;20020;-59
2024/01/17 03:52:55;;;;;;;;;;;20.70;32.10;;;;;;5013999;28;19948;-59
2024/01/17 03:55:22;;;;;;;;;;;20.70;32.10;;;;;;5013682;28;19968;-59
2024/01/17 03:57:49;;;;;;;;;;;20.60;32.00;;;;;;5013760;28;19925;-59
2024/01/17 04:00:16;;;;;;;;;;;20.60;32.00;;;;;;5013682;28;19957;-58
2024/01/17 04:02:43;;;;;;;;;;;20.60;32.00;;;;;;5013683;28;19926;-59
2024/01/17 04:05:10;;;;;;;;;;;20.60;32.00;;;;;;5013947;28;20028;-59
2024/01/17 04:07:37;;;;;;;;;;;20.60;32.00;;;;;;5013534;28;19956;-59
2024/01/17 04:10:04;;;;;;;;;;;20.60;32.00;;;;;;5012991;28;19932;-61
2024/01/17 04:12:31;;;;;;;;;;;20.60;32.00;;;;;;5013386;28;19926;-59
2024/01/17 04:14:58;;;;;;;;;;;20.60;32.00;;;;;;5013797;28;19933;-59
2024/01/17 04:17:25;;;;;;;;;;;20.70;32.10;;;;;;5013611;28;19925;-59
2024/01/17 04:19:52;;;;;;;;;;;20.60;32.00;;;;;;5013532;28;19925;-59
2024/01/17 04:22:19;;;;;;;;;;;20.60;32.00;;;;;;4998482;28;19933;-59
2024/01/17 04:24:46;;;;;;;;;;;20.60;31.90;;;;;;4993956;28;19930;-59
2024/01/17 04:27:13;;;;;;;;;;;20.60;31.90;;;;;;4993807;28;20012;-58
2024/01/17 04:29:40;;;;;;;;;;;20.70;32.00;;;;;;4993865;28;19930;-59
2024/01/17 04:32:08;;;;;;;;;;;20.70;32.00;;;;;;4993596;28;19930;-59
2024/01/17 04:34:34;;;;;;;;;;;20.70;31.90;;;;;;4994216;28;19926;-59
2024/01/17 04:37:01;;;;;;;;;;;20.70;31.90;;;;;;5013398;28;19925;-59
2024/01/17 04:39:28;;;;;;;;;;;20.70;31.80;;;;;;5007879;28;19940;-59
2024/01/17 04:41:56;;;;;;;;;;;20.80;32.20;;;;;;5011102;28;19961;-59
2024/01/17 04:44:23;;;;;;;;;;;20.70;31.40;;;;;;5013011;28;20374;-59
2024/01/17 04:46:50;;;;;;;;;;;20.80;31.40;;;;;;5013236;28;19969;-59
2024/01/17 04:49:17;;;;;;;;;;;20.80;31.20;;;;;;5013542;28;19925;-59
2024/01/17 04:51:46;;;;;;;;;;;20.80;31.10;;;;;;5011203;28;19926;-59
2024/01/17 04:54:13;;;;;;;;;;;20.70;31.00;;;;;;5003630;28;19971;-58
2024/01/17 04:56:40;;;;;;;;;;;20.70;31.00;;;;;;5005041;28;19985;-59
2024/01/17 04:59:09;;;;;;;;;;;20.80;31.10;;;;;;4998724;28;19934;-59
2024/01/17 05:01:36;;;;;;;;;;;20.80;31.10;;;;;;4998425;28;19932;-59
2024/01/17 05:04:03;;;;;;;;;;;20.80;31.10;;;;;;4997331;28;19979;-59
2024/01/17 05:06:32;;;;;;;;;;;20.80;31.10;;;;;;4996306;28;19929;-59
2024/01/17 05:08:59;;;;;;;;;;;20.80;31.10;;;;;;4997059;28;19926;-59
2024/01/17 05:11:29;;;;;;;;;;;20.80;31.10;;;;;;4996764;28;20393;-59
2024/01/17 05:13:56;;;;;;;;;;;20.70;31.00;;;;;;4999443;28;19932;-60
2024/01/17 05:16:23;;;;;;;;;;;20.80;31.00;;;;;;5016032;28;19948;-59
2024/01/17 05:18:50;;;;;;;;;;;20.70;30.90;;;;;;5016143;28;20020;-59
2024/01/17 05:21:17;;;;;;;;;;;20.80;31.00;;;;;;5014068;28;20346;-59
2024/01/17 05:23:44;;;;;;;;;;;20.80;30.90;;;;;;5006234;28;20004;-59
2024/01/17 05:26:11;;;;;;;;;;;20.80;30.90;;;;;;5005472;28;20020;-59
2024/01/17 05:28:38;;;;;;;;;;;20.80;30.90;;;;;;4999242;28;19925;-59
2024/01/17 05:31:05;;;;;;;;;;;20.80;30.90;;;;;;4996276;28;20379;-59
2024/01/17 05:33:32;;;;;;;;;;;20.80;30.90;;;;;;4996917;28;19981;-59
2024/01/17 05:35:59;;;;;;;;;;;20.80;31.00;;;;;;4996516;28;20395;-59
2024/01/17 05:38:27;;;;;;;;;;;20.80;30.90;;;;;;5003154;28;20024;-59
2024/01/17 05:40:54;;;;;;;;;;;20.90;31.00;;;;;;5015857;28;20446;-59
2024/01/17 05:43:22;;;;;;;;;;;20.90;31.00;;;;;;5015811;28;19988;-59
2024/01/17 05:45:50;;;;;;;;;;;20.90;30.90;;;;;;5012183;28;19933;-59
2024/01/17 05:48:17;;;;;;;;;;;20.90;30.90;;;;;;5009870;28;20347;-59
2024/01/17 05:50:45;;;;;;;;;;;20.90;30.80;;;;;;4996415;28;19933;-59
2024/01/17 05:53:12;;;;;;;;;;;21.00;30.90;;;;;;4996129;28;19949;-59
2024/01/17 05:55:38;;;;;;;;;;;20.90;30.80;;;;;;4996674;28;19929;-59
2024/01/17 05:58:05;;;;;;;;;;;21.00;30.80;;;;;;5015292;28;19933;-59
2024/01/17 06:00:32;;;;;;;;;;;21.00;30.80;;;;;;5007672;28;20379;-59
2024/01/17 06:02:59;;;;;;;;;;;21.00;30.90;;;;;;4995202;28;19926;-59
2024/01/17 06:05:26;;;;;;;;;;;21.00;31.00;;;;;;5004719;28;19925;-59
2024/01/17 06:07:55;;;;;;;;;;;21.00;31.00;;;;;;5015125;28;20432;-59
2024/01/17 06:10:23;;;;;;;;;;;21.10;31.10;;;;;;5014347;28;20015;-59
2024/01/17 06:12:50;;;;;;;;;;;21.10;31.10;;;;;;5009231;28;19926;-59
2024/01/17 06:15:17;;;;;;;;;;;21.10;31.00;;;;;;5000547;28;19969;-59
2024/01/17 06:17:45;;;;;;;;;;;21.20;31.10;;;;;;5003226;28;19933;-59
2024/01/17 06:20:12;;;;;;;;;;;21.20;31.10;;;;;;5003667;28;19980;-56
2024/01/17 06:22:39;;;;;;;;;;;21.20;31.10;;;;;;5010410;28;19925;-56
2024/01/17 06:25:07;;;;;;;;;;;21.20;31.00;;;;;;5008948;28;20379;-59
2024/01/17 06:27:34;;;;;;;;;;;21.30;31.00;;;;;;5005699;28;19934;-58
2024/01/17 06:30:01;;;;;;;;;;;21.30;31.10;;;;;;5002506;28;20021;-62
2024/01/17 06:32:28;;;;;;;;;;;21.30;31.20;;;;;;5006765;28;19930;-59
2024/01/17 06:34:57;;;;;;;;;;;21.40;31.40;;;;;;5005848;28;19933;-61
2024/01/17 06:37:24;;;;;;;;;;;21.40;31.50;;;;;;5006425;28;19934;-62
2024/01/17 06:39:51;;;;;;;;;;;21.40;31.50;;;;;;5004200;28;19940;-58
2024/01/17 06:42:18;;;;;;;;;;;21.40;31.50;;;;;;5002845;28;20448;-58
2024/01/17 06:44:46;;;;;;;;;;;21.50;31.60;;;;;;5005857;28;20336;-58
2024/01/17 06:47:13;;;;;;;;;;;21.50;31.80;;;;;;5004783;28;19948;-59
2024/01/17 06:49:41;;;;;;;;;;;21.50;32.20;;;;;;4985640;28;20415;-59
2024/01/17 06:52:09;;;;;;;;;;;21.60;32.50;;;;;;5002168;28;19983;-59
2024/01/17 06:54:36;;;;;;;;;;;21.60;32.60;;;;;;5001639;28;20286;-59
2024/01/17 06:57:04;;;;;;;;;;;21.60;32.60;;;;;;4997720;28;19934;-58
2024/01/17 06:59:31;;;;;;;;;;;21.70;32.70;;;;;;4982162;28;19966;-59
2024/01/17 07:01:58;;;;;;;;;;;21.70;32.60;;;;;;4995509;28;19926;-59
2024/01/17 07:04:25;;;;;;;;;;;21.70;32.70;;;;;;4996948;28;20390;-58
2024/01/17 07:06:52;;;;;;;;;;;21.80;32.80;;;;;;4998695;28;20033;-61
2024/01/17 07:09:20;;;;;;;;;;;21.80;32.70;;;;;;5001593;28;20061;-59
2024/01/17 07:11:47;;;;;;;;;;;21.80;32.50;;;;;;5001986;28;19933;-62
2024/01/17 07:14:14;;;;;;;;;;;21.80;32.70;;;;;;5000640;28;20401;-59
2024/01/17 07:16:41;;;;;;;;;;;21.80;32.70;;;;;;4999096;28;19925;-61
2024/01/17 07:19:08;;;;;;;;;;;21.90;33.00;;;;;;4998000;28;19940;-61
2024/01/17 07:21:39;;;;;;;;;;;21.90;33.00;;;;;;4993797;28;19972;-60
2024/01/17 07:24:06;;;;;;;;;;;22.00;33.10;;;;;;4999938;28;20044;-59
2024/01/17 07:26:33;;;;;;;;;;;22.00;33.00;;;;;;4999525;28;20038;-59
2024/01/17 07:29:00;;;;;;;;;;;22.00;32.90;;;;;;5000231;28;19933;-59
2024/01/17 07:31:28;;;;;;;;;;;22.00;32.70;;;;;;4998428;28;21341;-60
2024/01/17 07:33:55;;;;;;;;;;;22.10;32.90;;;;;;4999944;28;19926;-61
2024/01/17 07:36:23;;;;;;;;;;;22.10;33.50;;;;;;5006336;28;19936;-61
2024/01/17 07:38:50;;;;;;;;;;;22.10;33.80;;;;;;5005059;28;19929;-60
2024/01/17 07:41:17;;;;;;;;;;;22.20;33.60;;;;;;4990682;28;20013;-62
2024/01/17 07:43:44;;;;;;;;;;;22.20;33.60;;;;;;5002911;28;20918;-60
2024/01/17 07:46:12;;;;;;;;;;;22.30;33.70;;;;;;5007436;28;19956;-60
2024/01/17 07:48:39;;;;;;;;;;;22.30;33.60;;;;;;5002387;28;20346;-61
2024/01/17 07:51:10;;;;;;;;;;;22.30;33.60;;;;;;4997921;28;19991;-61
2024/01/17 07:53:38;;;;;;;;;;;22.40;33.50;;;;;;4999437;28;19933;-60
2024/01/17 07:56:05;;;;;;;;;;;22.50;33.40;;;;;;4996943;28;20379;-60
2024/01/17 07:58:32;;;;;;;;;;;22.50;33.40;;;;;;4996545;28;19949;-60
2024/01/17 08:00:59;;;;;;;;;;;22.60;33.20;;;;;;4998575;28;19965;-61
2024/01/17 08:03:26;;;;;;;;;;;22.60;33.00;;;;;;5001909;28;19929;-62
2024/01/17 08:05:57;;;;;;;;;;;22.70;32.80;;;;;;5002468;28;20291;-62
2024/01/17 08:08:24;;;;;;;;;;;22.70;32.70;;;;;;5002444;28;19932;-59
2024/01/17 08:10:52;;;;;;;;;;;22.80;32.80;;;;;;5003079;28;20371;-59
2024/01/17 08:13:19;;;;;;;;;;;22.80;33.10;;;;;;5001754;28;19925;-59
2024/01/17 08:15:46;;;;;;;;;;;22.90;33.30;;;;;;5002039;28;20363;-61
2024/01/17 08:18:13;;;;;;;;;;;23.00;33.40;;;;;;5004234;28;19929;-62
2024/01/17 08:20:40;;;;;;;;;;;23.00;33.40;;;;;;5004354;28;20029;-61
2024/01/17 08:23:08;;;;;;;;;;;23.00;33.30;;;;;;5002339;28;19934;-61
2024/01/17 08:25:35;;;;;;;;;;;23.10;33.40;;;;;;5004565;28;20021;-61
2024/01/17 08:28:03;;;;;;;;;;;23.10;33.40;;;;;;4986781;28;20028;-60
2024/01/17 08:30:30;;;;;;;;;;;23.20;33.40;;;;;;5002350;28;19929;-61
2024/01/17 08:32:57;;;;;;;;;;;23.20;33.40;;;;;;4986928;28;19926;-61
2024/01/17 08:35:24;;;;;;;;;;;23.30;33.40;;;;;;4989721;28;20287;-62
2024/01/17 08:37:51;;;;;;;;;;;23.30;33.30;;;;;;5005774;28;20500;-61
2024/01/17 08:40:18;;;;;;;;;;;23.40;33.30;;;;;;4989576;28;19934;-61
2024/01/17 08:42:45;;;;;;;;;;;23.40;33.30;;;;;;5006483;28;19926;-61
2024/01/17 08:45:12;;;;;;;;;;;23.40;33.30;;;;;;5005355;28;20306;-60
2024/01/17 08:47:42;;;;;;;;;;;23.50;33.20;;;;;;5004049;28;20595;-59
2024/01/17 08:50:09;;;;;;;;;;;23.50;33.30;;;;;;5004065;28;20028;-61
2024/01/17 08:52:36;;;;;;;;;;;23.50;33.30;;;;;;4986894;28;19926;-61
2024/01/17 08:55:08;;;;;;;;;;;23.60;33.20;;;;;;5004485;28;19930;-63
2024/01/17 08:57:37;;;;;;;;;;;23.50;33.20;;;;;;5007359;28;19941;-62
2024/01/17 09:00:06;;;;;;;;;;;23.60;33.10;;;;;;5003346;28;20622;-61
2024/01/17 09:02:33;;;;;;;;;;;23.60;33.00;;;;;;5007167;28;19940;-62
2024/01/17 09:05:01;;;;;;;;;;;23.70;33.00;;;;;;5004847;28;20368;-61
2024/01/17 09:07:28;;;;;;;;;;;23.70;32.70;;;;;;5005330;28;19977;-59
2024/01/17 09:09:59;;;;;;;;;;;23.70;32.60;;;;;;4994016;28;19965;-61
2024/01/17 09:12:26;;;;;;;;;;;23.70;32.40;;;;;;5009134;28;19932;-60
2024/01/17 09:14:54;;;;;;;;;;;23.70;32.30;;;;;;5001723;28;19933;-63
2024/01/17 09:17:22;;;;;;;;;;;23.80;32.20;;;;;;5004660;28;20052;-61
2024/01/17 09:19:49;;;;;;;;;;;23.80;32.20;;;;;;5001170;28;19980;-60
2024/01/17 09:22:16;;;;;;;;;;;23.90;32.20;;;;;;5002160;28;21212;-60
2024/01/17 09:24:43;;;;;;;;;;;23.90;32.30;;;;;;5002776;28;19988;-60
2024/01/17 09:27:10;;;;;;;;;;;23.90;32.30;;;;;;5002462;28;19969;-60
2024/01/17 09:29:37;;;;;;;;;;;24.00;32.40;;;;;;5001836;28;19936;-60
2024/01/17 09:32:05;;;;;;;;;;;24.00;32.40;;;;;;5007241;28;19925;-61
2024/01/17 09:34:33;;;;;;;;;;;24.00;32.50;;;;;;5000860;28;20055;-60
2024/01/17 09:37:03;;;;;;;;;;;24.00;32.40;;;;;;5001617;28;20016;-61
2024/01/17 09:39:30;;;;;;;;;;;24.10;32.50;;;;;;5004416;28;20397;-61
2024/01/17 09:42:02;;;;;;;;;;;24.10;32.50;;;;;;5000449;28;20399;-64
2024/01/17 09:44:29;;;;;;;;;;;24.10;32.50;;;;;;5007700;28;19957;-59
2024/01/17 09:47:00;;;;;;;;;;;24.10;32.40;;;;;;5005672;28;19929;-59
2024/01/17 09:49:27;;;;;;;;;;;24.20;32.40;;;;;;5000419;28;20252;-60
2024/01/17 09:51:54;;;;;;;;;;;24.20;32.30;;;;;;5004772;28;19999;-59
2024/01/17 09:54:22;;;;;;;;;;;24.20;32.20;;;;;;5000993;28;19988;-60
2024/01/17 09:56:49;;;;;;;;;;;24.30;32.20;;;;;;5001625;28;20287;-62
2024/01/17 09:59:21;;;;;;;;;;;24.30;32.10;;;;;;5005342;28;19932;-61
2024/01/17 10:01:48;;;;;;;;;;;24.30;32.10;;;;;;5005663;28;19992;-61
2024/01/17 10:04:15;;;;;;;;;;;24.30;31.90;;;;;;5002865;28;19991;-61
2024/01/17 10:06:43;;;;;;;;;;;24.40;31.90;;;;;;5003136;28;20024;-61
2024/01/17 10:09:10;;;;;;;;;;;24.40;31.90;;;;;;5002225;28;20363;-59
2024/01/17 10:11:38;;;;;;;;;;;24.40;31.80;;;;;;4987352;28;19926;-60
2024/01/17 10:14:05;;;;;;;;;;;24.50;31.80;;;;;;5002938;28;19933;-60
2024/01/17 10:16:32;;;;;;;;;;;24.50;31.80;;;;;;5002694;28;19929;-62
2024/01/17 10:19:00;;;;;;;;;;;24.50;31.80;;;;;;5009366;28;20537;-60
2024/01/17 10:21:30;;;;;;;;;;;24.50;31.70;;;;;;5002764;28;19933;-61
2024/01/17 10:23:57;;;;;;;;;;;24.50;31.70;;;;;;4998713;28;20019;-60
2024/01/17 10:26:24;;;;;;;;;;;24.50;31.70;;;;;;5004271;28;19934;-60
2024/01/17 10:28:51;;;;;;;;;;;24.50;31.60;;;;;;5005305;28;19929;-60
2024/01/17 10:31:21;;;;;;;;;;;24.50;31.60;;;;;;4997538;28;19935;-60
2024/01/17 10:33:48;;;;;;;;;;;24.50;31.60;;;;;;4986440;28;19969;-62
2024/01/17 10:36:16;;;;;;;;;;;24.50;31.50;;;;;;5003429;28;19933;-60
2024/01/17 10:38:44;;;;;;;;;;;24.50;31.40;;;;;;4999874;28;19991;-63
2024/01/17 10:41:11;;;;;;;;;;;24.50;31.30;;;;;;5002678;28;20012;-64
2024/01/17 10:43:53;;;;;;;;;;;24.50;31.20;;;;;;5001443;28;19940;-63
2024/01/17 10:46:20;;;;;;;;;;;24.50;31.20;;;;;;5000189;28;20024;-61
2024/01/17 10:48:47;;;;;;;;;;;24.50;31.10;;;;;;4999184;28;20477;-63
2024/01/17 10:51:21;;;;;;;;;;;24.50;31.10;;;;;;5006731;28;19938;-63
2024/01/17 10:53:49;;;;;;;;;;;24.50;31.00;;;;;;4985936;28;20008;-62
2024/01/17 10:56:22;;;;;;;;;;;24.60;31.00;;;;;;5005536;28;19926;-62
2024/01/17 10:58:51;;;;;;;;;;;24.60;31.00;;;;;;5003833;28;19940;-63
2024/01/17 11:01:25;;;;;;;;;;;24.60;31.60;;;;;;5004896;28;20003;-64
2024/01/17 11:03:53;;;;;;;;;;;24.60;31.10;;;;;;5002112;28;19926;-62
2024/01/17 11:06:22;;;;;;;;;;;24.60;31.00;;;;;;5007723;28;19940;-63
2024/01/17 11:08:50;;;;;;;;;;;24.60;31.00;;;;;;5006187;28;19945;-62
2024/01/17 11:11:18;;;;;;;;;;;24.70;31.00;;;;;;5006709;28;19940;-61
2024/01/17 11:13:46;;;;;;;;;;;24.70;30.90;;;;;;4986861;28;19987;-61
2024/01/17 11:16:15;;;;;;;;;;;24.70;30.90;;;;;;5004395;28;20019;-61
2024/01/17 11:18:49;;;;;;;;;;;24.70;30.90;;;;;;5066648;28;19931;-60
2024/01/17 11:21:19;;;;;;;;;;;24.70;30.70;;;;;;5037973;28;19987;-60
2024/01/17 11:24:03;;;;;;;;;;;24.70;30.60;;;;;;5036574;28;19983;-60
2024/01/17 11:26:34;;;;;;;;;;;24.80;30.60;;;;;;5039005;28;19936;-59
2024/01/17 11:29:21;;;;;;;;;;;24.80;30.60;;;;;;5037621;28;19933;-59
2024/01/17 11:32:08;;;;;;;;;;;24.80;30.50;;;;;;5033936;28;20022;-59
2024/01/17 11:34:35;;;;;;;;;;;24.80;30.50;;;;;;5037371;28;19971;-60
2024/01/17 11:37:02;;;;;;;;;;;24.80;30.40;;;;;;5036950;28;21185;-62
2024/01/17 11:39:29;;;;;;;;;;;24.80;30.30;;;;;;5035977;28;19973;-65
2024/01/17 11:41:56;;;;;;;;;;;24.80;30.30;;;;;;5036300;28;19932;-62
2024/01/17 11:44:23;;;;;;;;;;;24.80;30.30;;;;;;5032740;28;19925;-59
2024/01/17 11:46:53;;;;;;;;;;;24.80;30.20;;;;;;5037350;28;20245;-60
2024/01/17 11:49:40;;;;;;;;;;;24.90;30.30;;;;;;5044184;28;20201;-60
2024/01/17 11:52:29;;;;;;;;;;;24.90;30.30;;;;;;5035791;28;20314;-58
2024/01/17 11:54:57;;;;;;;;;;;24.90;30.40;;;;;;5032140;28;19936;-61
2024/01/17 11:57:28;;;;;;;;;;;24.90;30.40;;;;;;5035495;28;20491;-60
2024/01/17 12:00:06;;;;;;;;;;;24.90;30.50;;;;;;5037067;28;20024;-60
2024/01/17 12:02:33;;;;;;;;;;;24.90;30.50;;;;;;5036608;28;19925;-61
2024/01/17 12:05:01;;;;;;;;;;;24.90;30.80;;;;;;5036012;28;19933;-60
2024/01/17 12:07:29;;;;;;;;;;;24.90;30.90;;;;;;5036222;28;19925;-61
2024/01/17 12:09:57;;;;;;;;;;;24.90;31.10;;;;;;5042495;28;19936;-61
2024/01/17 12:12:23;;;;;;;;;;;24.90;31.10;;;;;;5036102;28;20367;-59
2024/01/17 12:14:50;;;;;;;;;;;24.90;31.10;;;;;;5038095;28;19982;-60
2024/01/17 12:17:17;;;;;;;;;;;24.90;31.00;;;;;;5035381;28;19932;-60
2024/01/17 12:19:45;;;;;;;;;;;25.00;31.00;;;;;;5037925;28;19929;-59
2024/01/17 12:22:13;;;;;;;;;;;25.00;30.90;;;;;;5036918;28;20050;-59
2024/01/17 12:24:40;;;;;;;;;;;25.00;30.90;;;;;;5037934;28;19956;-57
2024/01/17 12:27:17;;;;;;;;;;;25.00;30.80;;;;;;5034187;28;19937;-60
2024/01/17 12:29:47;;;;;;;;;;;25.00;30.90;;;;;;5024626;28;19935;-59
2024/01/17 12:32:14;;;;;;;;;;;25.00;31.00;;;;;;5021546;28;19932;-59
2024/01/17 12:34:41;;;;;;;;;;;24.90;30.90;;;;;;5018422;28;19980;-60
2024/01/17 12:37:08;;;;;;;;;;;24.90;30.90;;;;;;5023537;28;20174;-59
2024/01/17 12:39:36;;;;;;;;;;;24.90;31.00;;;;;;5021564;28;19929;-58
2024/01/17 12:42:03;;;;;;;;;;;24.90;31.00;;;;;;5020821;28;19971;-61
2024/01/17 12:44:31;;;;;;;;;;;24.90;31.10;;;;;;5024341;28;19979;-62
2024/01/17 12:46:58;;;;;;;;;;;24.90;31.20;;;;;;5023418;28;19937;-59
2024/01/17 12:49:28;;;;;;;;;;;24.90;31.10;;;;;;5023551;28;19929;-59
2024/01/17 12:51:56;;;;;;;;;;;24.90;31.20;;;;;;5021245;28;19929;-59
2024/01/17 12:54:23;;;;;;;;;;;24.90;31.20;;;;;;5023271;28;19977;-59
2024/01/17 12:56:53;;;;;;;;;;;24.90;31.30;;;;;;5019135;28;21328;-60
2024/01/17 12:59:20;;;;;;;;;;;24.80;31.40;;;;;;5021717;28;19932;-59
2024/01/17 13:01:47;;;;;;;;;;;24.80;31.50;;;;;;5021265;28;19929;-60
2024/01/17 13:04:14;;;;;;;;;;;24.80;31.50;;;;;;5021781;28;19933;-59
2024/01/17 13:06:45;;;;;;;;;;;24.80;31.60;;;;;;5021840;28;19933;-59
2024/01/17 13:09:15;;;;;;;;;;;24.70;31.60;;;;;;5018111;28;20263;-59
2024/01/17 13:11:47;;;;;;;;;;;24.70;31.50;;;;;;5020690;28;19925;-59
2024/01/17 13:14:16;;;;;;;;;;;24.70;31.50;;;;;;5015336;28;19929;-59
2024/01/17 13:16:43;;;;;;;;;;;24.70;31.60;;;;;;5018895;28;20028;-59
2024/01/17 13:19:12;;;;;;;;;;;24.70;31.60;;;;;;5023527;28;20282;-59
2024/01/17 13:21:40;;;;;;;;;;;24.70;31.60;;;;;;5017568;28;19955;-60
2024/01/17 13:24:08;;;;;;;;;;;24.60;31.60;;;;;;5020087;28;19961;-60
2024/01/17 13:26:36;;;;;;;;;;;24.60;31.60;;;;;;5017309;28;19925;-61
2024/01/17 13:29:04;;;;;;;;;;;24.60;31.60;;;;;;5013935;28;19933;-60
2024/01/17 13:31:32;;;;;;;;;;;24.50;31.70;;;;;;5020503;28;20383;-60
2024/01/17 13:33:59;;;;;;;;;;;24.50;31.70;;;;;;5019735;28;19925;-60
2024/01/17 13:36:30;;;;;;;;;;;24.50;31.80;;;;;;5017573;28;19939;-59
2024/01/17 13:38:57;;;;;;;;;;;24.50;31.90;;;;;;5024937;28;19933;-60
2024/01/17 13:41:26;;;;;;;;;;;24.40;31.80;;;;;;5021318;28;19933;-60
2024/01/17 13:43:55;;;;;;;;;;;24.40;31.90;;;;;;5024144;28;19933;-61
2024/01/17 13:46:23;;;;;;;;;;;24.40;31.90;;;;;;5027851;28;19933;-60
2024/01/17 13:48:50;;;;;;;;;;;24.40;31.90;;;;;;5015537;28;19931;-60
2024/01/17 13:51:18;;;;;;;;;;;24.40;32.10;;;;;;5016918;28;19937;-60
2024/01/17 13:53:53;;;;;;;;;;;24.40;32.10;;;;;;5019391;28;19933;-60
2024/01/17 13:56:20;;;;;;;;;;;24.30;32.10;;;;;;5017522;28;19978;-59
2024/01/17 13:58:47;;;;;;;;;;;24.30;32.10;;;;;;5020485;28;19925;-61
2024/01/17 14:01:18;;;;;;;;;;;24.30;32.20;;;;;;5021778;28;19998;-63
2024/01/17 14:03:46;;;;;;;;;;;24.30;32.20;;;;;;5018263;28;19932;-58
2024/01/17 14:06:14;;;;;;;;;;;24.30;32.30;;;;;;5016291;28;20346;-59
2024/01/17 14:08:42;;;;;;;;;;;24.30;32.40;;;;;;5029192;28;20006;-57
2024/01/17 14:11:12;;;;;;;;;;;24.30;32.60;;;;;;5020059;28;19960;-56
2024/01/17 14:13:42;;;;;;;;;;;24.30;32.80;;;;;;5026273;28;19933;-57
2024/01/17 14:16:12;;;;;;;;;;;24.30;32.80;;;;;;5021392;28;19976;-60
2024/01/17 14:18:39;;;;;;;;;;;24.30;32.90;;;;;;5038544;28;20034;-57
2024/01/17 14:21:06;;;;;;;;;;;24.30;33.00;;;;;;5024760;28;20398;-58